Time,TemperatureF,DewpointF,PressureIn,WindDirection,WindDirectionDegrees,WindSpeedMPH,WindSpeedGustMPH,Humidity,HourlyPrecipIn,Conditions,Clouds,dailyrainin,SoftwareType,DateUTC
2013-04-19 00:01:00,46.8,41.3,30.15,West,280,4.0,5.0,81,0.00,,OVC060,0.00,VWS V14.00,2013-04-19 04:01:00,
2013-04-19 00:06:00,46.9,41.4,30.15,East,86,0.0,6.0,81,0.00,,OVC060,0.00,VWS V14.00,2013-04-19 04:06:00,
2013-04-19 00:11:00,46.9,41.4,30.15,SW,224,3.0,6.0,81,0.00,,OVC060,0.00,VWS V14.00,2013-04-19 04:11:00,
2013-04-19 00:16:00,47.0,41.5,30.14,SSW,193,4.0,7.0,81,0.00,,OVC060,0.00,VWS V14.00,2013-04-19 04:16:00,
2013-04-19 00:21:00,47.0,41.5,30.13,SSE,159,0.0,10.0,81,0.00,,OVC060,0.00,VWS V14.00,2013-04-19 04:21:00,
2013-04-19 00:26:00,46.9,41.4,30.13,SSW,213,3.0,10.0,81,0.00,,OVC060,0.00,VWS V14.00,2013-04-19 04:26:00,
2013-04-19 00:31:00,46.8,41.6,30.12,South,186,3.0,7.0,82,0.00,,OVC060,0.00,VWS V14.00,2013-04-19 04:31:00,
2013-04-19 00:36:00,46.5,41.3,30.12,ESE,105,4.0,8.0,82,0.00,,OVC060,0.00,VWS V14.00,2013-04-19 04:36:00,
2013-04-19 00:41:00,46.3,41.4,30.12,South,172,3.0,8.0,83,0.00,,OVC060,0.00,VWS V14.00,2013-04-19 04:41:00,
2013-04-19 00:46:00,46.1,41.2,30.12,South,188,3.0,8.0,83,0.00,,OVC060,0.00,VWS V14.00,2013-04-19 04:46:00,
2013-04-19 00:51:00,45.9,41.3,30.12,SW,232,5.0,8.0,84,0.00,,OVC060,0.00,VWS V14.00,2013-04-19 04:51:00,
2013-04-19 00:56:00,45.8,41.2,30.11,SSW,203,5.0,8.0,84,0.00,,OVC060,0.00,VWS V14.00,2013-04-19 04:56:00,
2013-04-19 01:01:00,45.7,41.5,30.11,SSE,150,2.0,7.0,85,0.00,,OVC044,0.00,VWS V14.00,2013-04-19 05:01:00,
2013-04-19 01:06:00,45.6,41.4,30.11,ESE,103,0.0,7.0,85,0.00,,OVC044,0.00,VWS V14.00,2013-04-19 05:06:00,
2013-04-19 01:11:00,45.5,41.3,30.10,East,98,0.0,7.0,85,0.00,,OVC044,0.00,VWS V14.00,2013-04-19 05:11:00,
2013-04-19 01:16:00,45.5,41.6,30.10,East,93,3.0,7.0,86,0.00,,OVC044,0.00,VWS V14.00,2013-04-19 05:16:00,
2013-04-19 01:21:00,45.4,41.5,30.09,ESE,113,7.0,9.0,86,0.00,,OVC044,0.00,VWS V14.00,2013-04-19 05:21:00,
2013-04-19 01:26:00,45.4,41.5,30.09,East,80,2.0,9.0,86,0.00,,OVC044,0.00,VWS V14.00,2013-04-19 05:26:00,
2013-04-19 01:31:00,45.5,41.6,30.09,ESE,122,4.0,10.0,86,0.00,,OVC044,0.00,VWS V14.00,2013-04-19 05:31:00,
2013-04-19 01:36:00,45.5,41.9,30.08,West,259,0.0,10.0,87,0.00,,OVC044,0.00,VWS V14.00,2013-04-19 05:36:00,
2013-04-19 01:41:00,45.5,41.9,30.08,SE,126,3.0,10.0,87,0.00,,OVC044,0.00,VWS V14.00,2013-04-19 05:41:00,
2013-04-19 01:46:00,45.5,41.9,30.08,East,84,5.0,10.0,87,0.00,,OVC044,0.00,VWS V14.00,2013-04-19 05:46:00,
2013-04-19 01:51:00,45.5,41.9,30.07,SSW,192,2.0,10.0,87,0.00,,OVC044,0.00,VWS V14.00,2013-04-19 05:51:00,
2013-04-19 01:56:00,45.6,42.0,30.06,SSW,197,2.0,10.0,87,0.00,,OVC044,0.00,VWS V14.00,2013-04-19 05:56:00,
2013-04-19 02:01:00,45.6,42.0,30.06,ESE,111,0.0,7.0,87,0.00,,BKN042,0.00,VWS V14.00,2013-04-19 06:01:00,
2013-04-19 02:06:00,45.7,42.1,30.05,SW,215,3.0,9.0,87,0.00,,BKN042,0.00,VWS V14.00,2013-04-19 06:06:00,
2013-04-19 02:11:00,45.9,42.5,30.05,SE,134,2.0,9.0,88,0.00,,BKN042,0.00,VWS V14.00,2013-04-19 06:11:00,
2013-04-19 02:16:00,46.2,42.8,30.05,East,82,5.0,9.0,88,0.00,,BKN042,0.00,VWS V14.00,2013-04-19 06:16:00,
2013-04-19 02:21:00,46.6,43.2,30.05,SSE,153,3.0,9.0,88,0.00,,BKN042,0.00,VWS V14.00,2013-04-19 06:21:00,
2013-04-19 02:26:00,46.9,43.2,30.04,South,171,2.0,14.0,87,0.00,,BKN042,0.00,VWS V14.00,2013-04-19 06:26:00,
2013-04-19 02:31:00,47.1,43.4,30.04,WSW,252,8.0,10.0,87,0.00,,BKN042,0.00,VWS V14.00,2013-04-19 06:31:00,
2013-04-19 02:36:00,47.2,43.5,30.04,WSW,252,2.0,12.0,87,0.00,,BKN042,0.00,VWS V14.00,2013-04-19 06:36:00,
2013-04-19 02:41:00,47.4,43.7,30.03,South,170,7.0,12.0,87,0.00,,BKN042,0.00,VWS V14.00,2013-04-19 06:41:00,
2013-04-19 02:46:00,47.6,43.9,30.03,SW,219,0.0,12.0,87,0.00,,BKN042,0.00,VWS V14.00,2013-04-19 06:46:00,
2013-04-19 02:51:00,47.7,44.0,30.02,South,187,4.0,12.0,87,0.00,,BKN042,0.00,VWS V14.00,2013-04-19 06:51:00,
2013-04-19 02:56:00,47.8,44.1,30.02,SSE,155,3.0,15.0,87,0.00,,BKN042,0.00,VWS V14.00,2013-04-19 06:56:00,
2013-04-19 03:01:00,47.9,44.2,30.02,ENE,66,2.0,10.0,87,0.00,,OVC045,0.00,VWS V14.00,2013-04-19 07:01:00,
2013-04-19 03:06:00,47.9,44.2,30.02,SSW,198,1.0,10.0,87,0.00,,OVC045,0.00,VWS V14.00,2013-04-19 07:06:00,
2013-04-19 03:11:00,48.0,44.6,30.02,SSW,194,8.0,13.0,88,0.00,,OVC045,0.00,VWS V14.00,2013-04-19 07:11:00,
2013-04-19 03:16:00,48.0,44.6,30.01,South,184,7.0,14.0,88,0.00,,OVC045,0.00,VWS V14.00,2013-04-19 07:16:00,
2013-04-19 03:21:00,48.1,44.7,30.01,East,93,0.0,14.0,88,0.00,,OVC045,0.00,VWS V14.00,2013-04-19 07:21:00,
2013-04-19 03:26:00,48.1,44.7,30.01,SW,220,5.0,14.0,88,0.00,,OVC045,0.00,VWS V14.00,2013-04-19 07:26:00,
2013-04-19 03:31:00,48.2,45.1,30.01,WSW,238,12.0,15.0,89,0.00,,OVC045,0.00,VWS V14.00,2013-04-19 07:31:00,
2013-04-19 03:36:00,48.3,45.2,30.01,WNW,301,0.0,15.0,89,0.00,,OVC045,0.00,VWS V14.00,2013-04-19 07:36:00,
2013-04-19 03:41:00,48.3,45.2,30.02,WSW,239,6.0,16.0,89,0.00,,OVC045,0.00,VWS V14.00,2013-04-19 07:41:00,
2013-04-19 03:46:00,48.2,45.1,30.02,South,184,2.0,16.0,89,0.00,,OVC045,0.00,VWS V14.00,2013-04-19 07:46:00,
2013-04-19 03:51:00,48.1,45.3,30.02,WSW,254,2.0,16.0,90,0.00,,OVC045,0.00,VWS V14.00,2013-04-19 07:51:00,
2013-04-19 03:56:00,48.0,45.2,30.01,WSW,243,4.0,16.0,90,0.00,,OVC045,0.00,VWS V14.00,2013-04-19 07:56:00,
2013-04-19 04:01:00,47.9,45.1,30.01,WSW,237,1.0,10.0,90,0.00,,OVC019,0.00,VWS V14.00,2013-04-19 08:01:00,
2013-04-19 04:06:00,47.9,45.4,30.02,West,281,3.0,10.0,91,0.00,,OVC019,0.00,VWS V14.00,2013-04-19 08:06:00,
2013-04-19 04:11:00,47.8,45.3,30.01,WSW,242,0.0,12.0,91,0.00,,OVC019,0.00,VWS V14.00,2013-04-19 08:11:00,
2013-04-19 04:16:00,47.8,45.6,30.02,West,271,4.0,13.0,92,0.00,,OVC019,0.00,VWS V14.00,2013-04-19 08:16:00,
2013-04-19 04:21:00,47.8,45.6,30.02,East,101,5.0,13.0,92,0.00,,OVC019,0.00,VWS V14.00,2013-04-19 08:21:00,
2013-04-19 04:26:00,47.7,45.5,30.02,WSW,256,0.0,13.0,92,0.00,,OVC019,0.00,VWS V14.00,2013-04-19 08:26:00,
2013-04-19 04:31:00,47.7,45.8,30.01,South,188,2.0,11.0,93,0.00,,OVC019,0.00,VWS V14.00,2013-04-19 08:31:00,
2013-04-19 04:36:00,47.6,45.7,30.01,SSW,209,4.0,11.0,93,0.00,,OVC019,0.00,VWS V14.00,2013-04-19 08:36:00,
2013-04-19 04:41:00,47.6,45.7,30.01,WNW,282,7.0,11.0,93,0.00,,OVC019,0.00,VWS V14.00,2013-04-19 08:41:00,
2013-04-19 04:45:00,47.6,46.0,30.01,SSW,202,5.0,11.0,94,0.00,,OVC019,0.00,VWS V14.00,2013-04-19 08:45:00,
2013-04-19 04:50:00,47.5,45.9,30.01,South,181,5.0,11.0,94,0.00,,OVC019,0.00,VWS V14.00,2013-04-19 08:50:00,
2013-04-19 04:55:00,47.4,45.8,30.01,West,270,0.0,11.0,94,0.00,,OVC019,0.00,VWS V14.00,2013-04-19 08:55:00,
2013-04-19 05:00:00,47.3,45.7,30.00,West,265,1.0,9.0,94,0.00,,OVC015,0.00,VWS V14.00,2013-04-19 09:00:00,
2013-04-19 05:05:00,47.2,45.6,30.00,South,191,2.0,9.0,94,0.00,,OVC015,0.00,VWS V14.00,2013-04-19 09:05:00,
2013-04-19 05:10:00,47.2,45.8,29.99,SW,223,3.0,9.0,95,0.00,,OVC015,0.00,VWS V14.00,2013-04-19 09:10:00,
2013-04-19 05:15:00,47.2,45.8,30.00,SW,234,6.0,11.0,95,0.00,,OVC015,0.00,VWS V14.00,2013-04-19 09:15:00,
2013-04-19 05:20:00,47.2,45.8,29.99,South,171,3.0,11.0,95,0.00,,OVC015,0.00,VWS V14.00,2013-04-19 09:20:00,
2013-04-19 05:25:00,47.3,45.9,29.99,SW,217,3.0,11.0,95,0.00,,OVC015,0.00,VWS V14.00,2013-04-19 09:25:00,
2013-04-19 05:30:00,47.3,46.2,29.99,South,170,0.0,6.0,96,0.00,,OVC013,0.00,VWS V14.00,2013-04-19 09:30:00,
2013-04-19 05:35:00,47.4,46.3,29.99,West,272,4.0,6.0,96,0.00,,OVC013,0.00,VWS V14.00,2013-04-19 09:35:00,
2013-04-19 05:40:00,47.4,46.3,29.99,SW,231,3.0,8.0,96,0.00,,OVC013,0.00,VWS V14.00,2013-04-19 09:40:00,
2013-04-19 05:45:00,47.4,46.3,29.99,SW,214,1.0,8.0,96,0.00,,OVC013,0.00,VWS V14.00,2013-04-19 09:45:00,
2013-04-19 05:50:00,47.4,46.3,29.99,South,184,5.0,8.0,96,0.00,,OVC013,0.00,VWS V14.00,2013-04-19 09:50:00,
2013-04-19 05:55:00,47.4,46.3,29.98,SW,226,4.0,8.0,96,0.00,,OVC013,0.00,VWS V14.00,2013-04-19 09:55:00,
2013-04-19 06:00:00,47.4,46.3,29.98,SSW,204,4.0,7.0,96,0.00,,OVC009,0.00,VWS V14.00,2013-04-19 10:00:00,
2013-04-19 06:05:00,47.4,46.3,29.98,SSW,198,2.0,7.0,96,0.00,,OVC009,0.00,VWS V14.00,2013-04-19 10:05:00,
2013-04-19 06:10:00,47.4,46.3,29.98,South,191,2.0,7.0,96,0.00,,OVC009,0.00,VWS V14.00,2013-04-19 10:10:00,
2013-04-19 06:15:00,47.3,46.2,29.98,South,178,3.0,9.0,96,0.00,,OVC009,0.00,VWS V14.00,2013-04-19 10:15:00,
2013-04-19 06:20:00,47.3,46.2,29.97,South,181,0.0,9.0,96,0.00,,OVC009,0.00,VWS V14.00,2013-04-19 10:20:00,
2013-04-19 06:25:00,47.4,46.3,29.97,South,172,3.0,9.0,96,0.00,,OVC009,0.00,VWS V14.00,2013-04-19 10:25:00,
2013-04-19 06:30:00,47.4,46.3,29.97,SW,220,5.0,6.0,96,0.00,,OVC009,0.00,VWS V14.00,2013-04-19 10:30:00,
2013-04-19 06:35:00,47.5,46.7,29.97,South,177,3.0,6.0,97,0.00,,OVC009,0.00,VWS V14.00,2013-04-19 10:35:00,
2013-04-19 06:40:00,47.6,46.8,29.97,WSW,244,4.0,6.0,97,0.00,,OVC009,0.00,VWS V14.00,2013-04-19 10:40:00,
2013-04-19 06:45:00,47.7,46.9,29.97,South,183,2.0,7.0,97,0.00,,OVC009,0.00,VWS V14.00,2013-04-19 10:45:00,
2013-04-19 06:50:00,47.8,47.0,29.97,SW,232,2.0,7.0,97,0.00,,OVC009,0.00,VWS V14.00,2013-04-19 10:50:00,
2013-04-19 06:55:00,47.9,47.1,29.97,SSW,194,0.0,7.0,97,0.00,,OVC009,0.00,VWS V14.00,2013-04-19 10:55:00,
2013-04-19 07:00:00,48.0,47.2,29.97,WSW,248,3.0,6.0,97,0.00,,,0.00,VWS V14.00,2013-04-19 11:00:00,
2013-04-19 07:05:00,48.1,47.3,29.98,South,177,1.0,6.0,97,0.00,,,0.00,VWS V14.00,2013-04-19 11:05:00,
2013-04-19 07:10:00,48.3,47.5,29.98,SSW,212,2.0,6.0,97,0.00,,,0.00,VWS V14.00,2013-04-19 11:10:00,
2013-04-19 07:15:00,48.6,47.8,29.98,WSW,246,2.0,6.0,97,0.00,,,0.00,VWS V14.00,2013-04-19 11:15:00,
2013-04-19 07:20:00,48.8,48.0,29.98,West,281,2.0,8.0,97,0.00,,,0.00,VWS V14.00,2013-04-19 11:20:00,
2013-04-19 07:25:00,48.9,48.1,29.98,SW,230,2.0,8.0,97,0.00,,,0.00,VWS V14.00,2013-04-19 11:25:00,
2013-04-19 07:30:00,49.0,48.2,29.98,WSW,239,0.0,9.0,97,0.00,,,0.00,VWS V14.00,2013-04-19 11:30:00,
2013-04-19 07:35:00,49.0,48.2,29.98,WSW,252,3.0,9.0,97,0.00,,,0.00,VWS V14.00,2013-04-19 11:35:00,
2013-04-19 07:40:00,49.2,48.4,29.98,West,269,0.0,9.0,97,0.00,,,0.00,VWS V14.00,2013-04-19 11:40:00,
2013-04-19 07:45:00,49.3,48.5,29.98,West,268,1.0,9.0,97,0.00,,,0.00,VWS V14.00,2013-04-19 11:45:00,
2013-04-19 07:50:00,49.4,48.6,29.98,SSW,193,1.0,9.0,97,0.00,,,0.00,VWS V14.00,2013-04-19 11:50:00,
2013-04-19 07:55:00,49.5,48.7,29.97,WSW,248,3.0,10.0,97,0.00,,,0.00,VWS V14.00,2013-04-19 11:55:00,
2013-04-19 08:00:00,49.6,48.8,29.97,SSW,206,3.0,6.0,97,0.00,,,0.00,VWS V14.00,2013-04-19 12:00:00,
2013-04-19 08:05:00,49.7,48.9,29.97,South,173,4.0,7.0,97,0.00,,,0.00,VWS V14.00,2013-04-19 12:05:00,
2013-04-19 08:10:00,49.9,49.4,29.97,SSW,200,5.0,7.0,98,0.00,,,0.00,VWS V14.00,2013-04-19 12:10:00,
2013-04-19 08:15:00,50.1,49.3,29.97,ESE,110,1.0,7.0,97,0.00,,,0.00,VWS V14.00,2013-04-19 12:15:00,
2013-04-19 08:20:00,50.2,49.7,29.97,SW,232,2.0,10.0,98,0.00,,,0.00,VWS V14.00,2013-04-19 12:20:00,
2013-04-19 08:25:00,50.2,49.4,29.97,SW,234,4.0,10.0,97,0.00,,,0.00,VWS V14.00,2013-04-19 12:25:00,
2013-04-19 08:30:00,50.0,49.2,29.97,SW,232,0.0,5.0,97,0.00,,,0.00,VWS V14.00,2013-04-19 12:30:00,
2013-04-19 08:35:00,50.0,49.5,29.96,WSW,253,1.0,6.0,98,0.00,,,0.00,VWS V14.00,2013-04-19 12:35:00,
2013-04-19 08:40:00,50.0,49.5,29.96,SSW,211,4.0,7.0,98,0.00,,,0.00,VWS V14.00,2013-04-19 12:40:00,
2013-04-19 08:45:00,50.3,49.8,29.96,SSW,202,4.0,7.0,98,0.00,,,0.00,VWS V14.00,2013-04-19 12:45:00,
2013-04-19 08:50:00,50.3,49.8,29.96,WSW,238,2.0,8.0,98,0.00,,,0.00,VWS V14.00,2013-04-19 12:50:00,
2013-04-19 08:55:00,50.7,50.2,29.95,SW,220,1.0,8.0,98,0.00,,,0.00,VWS V14.00,2013-04-19 12:55:00,
2013-04-19 09:00:00,50.5,50.0,29.95,ESE,105,3.0,5.0,98,0.00,,,0.00,VWS V14.00,2013-04-19 13:00:00,
2013-04-19 09:05:00,50.1,49.3,29.95,SW,226,0.0,6.0,97,0.00,,,0.00,VWS V14.00,2013-04-19 13:05:00,
2013-04-19 09:10:00,50.3,49.8,29.95,SSE,158,5.0,6.0,98,0.00,,,0.00,VWS V14.00,2013-04-19 13:10:00,
2013-04-19 09:15:00,50.6,50.1,29.95,ESE,121,4.0,6.0,98,0.00,,,0.00,VWS V14.00,2013-04-19 13:15:00,
2013-04-19 09:20:00,50.8,50.3,29.95,ESE,103,2.0,6.0,98,0.00,,,0.00,VWS V14.00,2013-04-19 13:20:00,
2013-04-19 09:25:00,50.6,50.1,29.95,NE,46,2.0,7.0,98,0.00,,,0.00,VWS V14.00,2013-04-19 13:25:00,
2013-04-19 09:30:00,50.5,50.0,29.95,SSW,209,2.0,7.0,98,0.00,,,0.00,VWS V14.00,2013-04-19 13:30:00,
2013-04-19 09:35:00,50.6,50.1,29.95,South,178,2.0,7.0,98,0.00,,,0.00,VWS V14.00,2013-04-19 13:35:00,
2013-04-19 09:40:00,50.7,50.2,29.95,ESE,123,2.0,8.0,98,0.00,,,0.00,VWS V14.00,2013-04-19 13:40:00,
2013-04-19 09:45:00,50.7,50.2,29.95,South,190,0.0,8.0,98,0.00,,,0.00,VWS V14.00,2013-04-19 13:45:00,
2013-04-19 09:50:00,51.2,50.7,29.94,WSW,240,4.0,8.0,98,0.00,,,0.00,VWS V14.00,2013-04-19 13:50:00,
2013-04-19 09:55:00,51.6,51.1,29.94,SSW,211,5.0,8.0,98,0.00,,,0.00,VWS V14.00,2013-04-19 13:55:00,
2013-04-19 10:00:00,51.8,51.3,29.94,SW,220,0.0,5.0,98,0.00,,OVC007,0.00,VWS V14.00,2013-04-19 14:00:00,
2013-04-19 10:05:00,52.2,51.7,29.93,SW,229,7.0,7.0,98,0.00,,OVC007,0.00,VWS V14.00,2013-04-19 14:05:00,
2013-04-19 10:10:00,52.4,51.8,29.93,SE,128,0.0,7.0,98,0.00,,OVC007,0.00,VWS V14.00,2013-04-19 14:10:00,
2013-04-19 10:15:00,52.1,51.5,29.93,SW,225,0.0,8.0,98,0.00,,OVC007,0.00,VWS V14.00,2013-04-19 14:15:00,
2013-04-19 10:20:00,52.5,52.0,29.93,WNW,284,3.0,8.0,98,0.00,,OVC007,0.00,VWS V14.00,2013-04-19 14:20:00,
2013-04-19 10:25:00,52.1,51.3,29.94,West,260,0.0,8.0,97,0.00,,OVC007,0.00,VWS V14.00,2013-04-19 14:25:00,
2013-04-19 10:30:00,52.1,51.5,29.93,SW,217,4.0,7.0,98,0.00,,OVC007,0.00,VWS V14.00,2013-04-19 14:30:00,
2013-04-19 10:35:00,52.4,51.8,29.93,South,173,4.0,10.0,98,0.00,,OVC007,0.00,VWS V14.00,2013-04-19 14:35:00,
2013-04-19 10:40:00,52.7,51.9,29.92,West,273,3.0,10.0,97,0.00,,OVC007,0.00,VWS V14.00,2013-04-19 14:40:00,
2013-04-19 10:45:00,53.2,52.4,29.92,WSW,250,4.0,10.0,97,0.00,,OVC015,0.00,VWS V14.00,2013-04-19 14:45:00,
2013-04-19 10:50:00,53.7,52.9,29.92,SSW,196,4.0,10.0,97,0.00,,OVC015,0.00,VWS V14.00,2013-04-19 14:50:00,
2013-04-19 10:55:00,54.0,53.2,29.92,West,261,7.0,10.0,97,0.00,,OVC015,0.00,VWS V14.00,2013-04-19 14:55:00,
2013-04-19 11:00:00,54.1,53.3,29.92,WNW,288,2.0,7.0,97,0.00,,OVC015,0.00,VWS V14.00,2013-04-19 15:00:00,
2013-04-19 11:05:00,54.1,53.3,29.92,West,272,4.0,8.0,97,0.00,,OVC015,0.00,VWS V14.00,2013-04-19 15:05:00,
2013-04-19 11:10:00,54.1,53.0,29.91,SSW,203,1.0,10.0,96,0.00,,OVC015,0.00,VWS V14.00,2013-04-19 15:10:00,
2013-04-19 11:15:00,54.5,53.7,29.91,South,189,0.0,10.0,97,0.00,,OVC015,0.00,VWS V14.00,2013-04-19 15:15:00,
2013-04-19 11:20:00,55.4,54.3,29.91,WNW,286,1.0,10.0,96,0.00,,OVC015,0.00,VWS V14.00,2013-04-19 15:20:00,
2013-04-19 11:25:00,56.0,54.9,29.91,SW,219,4.0,10.0,96,0.00,,OVC015,0.00,VWS V14.00,2013-04-19 15:25:00,
2013-04-19 11:30:00,57.8,56.4,29.90,West,262,2.0,7.0,95,0.00,,OVC015,0.00,VWS V14.00,2013-04-19 15:30:00,
2013-04-19 11:35:00,59.0,57.0,29.90,SW,233,5.0,15.0,93,0.00,,OVC015,0.00,VWS V14.00,2013-04-19 15:35:00,
2013-04-19 11:40:00,59.7,56.8,29.90,South,173,2.0,15.0,90,0.00,,OVC015,0.00,VWS V14.00,2013-04-19 15:40:00,
2013-04-19 11:45:00,60.2,57.0,29.90,NNW,329,1.0,15.0,89,0.00,,OVC015,0.00,VWS V14.00,2013-04-19 15:45:00,
2013-04-19 11:50:00,60.5,56.9,29.89,WNW,292,2.0,15.0,88,0.00,,OVC015,0.00,VWS V14.00,2013-04-19 15:50:00,
2013-04-19 11:55:00,60.2,56.6,29.89,SW,215,5.0,15.0,88,0.00,,OVC015,0.00,VWS V14.00,2013-04-19 15:55:00,
2013-04-19 12:00:00,60.9,57.0,29.90,West,259,1.0,12.0,87,0.00,,BKN027,0.00,VWS V14.00,2013-04-19 16:00:00,
2013-04-19 12:05:00,60.7,56.8,29.89,West,276,3.0,12.0,87,0.00,,BKN027,0.00,VWS V14.00,2013-04-19 16:05:00,
2013-04-19 12:10:00,61.4,57.5,29.88,SSE,164,5.0,14.0,87,0.00,,BKN027,0.00,VWS V14.00,2013-04-19 16:10:00,
2013-04-19 12:15:00,61.8,57.2,29.88,SW,229,3.0,14.0,85,0.00,,BKN027,0.00,VWS V14.00,2013-04-19 16:15:00,
2013-04-19 12:20:00,62.0,57.1,29.88,WSW,252,12.0,14.0,84,0.00,,BKN027,0.00,VWS V14.00,2013-04-19 16:20:00,
2013-04-19 12:25:00,61.2,56.7,29.87,South,180,5.0,14.0,85,0.00,,BKN027,0.00,VWS V14.00,2013-04-19 16:25:00,
2013-04-19 12:30:00,61.7,57.2,29.87,SE,125,10.0,13.0,85,0.00,,BKN027,0.00,VWS V14.00,2013-04-19 16:30:00,
2013-04-19 12:35:00,62.1,57.2,29.87,ENE,78,5.0,13.0,84,0.00,,BKN027,0.00,VWS V14.00,2013-04-19 16:35:00,
2013-04-19 12:40:00,62.7,57.8,29.86,South,191,11.0,13.0,84,0.00,,BKN027,0.00,VWS V14.00,2013-04-19 16:40:00,
2013-04-19 12:45:00,63.8,58.5,29.86,SE,136,8.0,14.0,83,0.00,,BKN027,0.00,VWS V14.00,2013-04-19 16:45:00,
2013-04-19 12:50:00,64.1,58.2,29.85,ESE,122,8.0,14.0,81,0.00,,BKN027,0.00,VWS V14.00,2013-04-19 16:50:00,
2013-04-19 12:55:00,64.0,58.4,29.85,SE,145,3.0,14.0,82,0.00,,BKN027,0.00,VWS V14.00,2013-04-19 16:55:00,
2013-04-19 13:00:00,64.5,58.5,29.84,SSW,200,5.0,8.0,81,0.00,,BKN022,0.00,VWS V14.00,2013-04-19 17:00:00,
2013-04-19 13:05:00,64.6,57.6,29.84,East,83,5.0,11.0,78,0.00,,BKN022,0.00,VWS V14.00,2013-04-19 17:05:00,
2013-04-19 13:10:00,63.2,56.6,29.84,SSW,196,5.0,11.0,79,0.00,,BKN022,0.00,VWS V14.00,2013-04-19 17:10:00,
2013-04-19 13:15:00,61.8,55.9,29.84,ESE,117,1.0,12.0,81,0.00,,BKN022,0.00,VWS V14.00,2013-04-19 17:15:00,
2013-04-19 13:20:00,61.5,56.3,29.84,ENE,73,1.0,12.0,83,0.00,,BKN022,0.00,VWS V14.00,2013-04-19 17:20:00,
2013-04-19 13:25:00,62.3,57.1,29.84,SSE,164,3.0,12.0,83,0.00,,BKN022,0.00,VWS V14.00,2013-04-19 17:25:00,
2013-04-19 13:30:00,61.9,56.3,29.84,South,175,5.0,9.0,82,0.00,,BKN022,0.00,VWS V14.00,2013-04-19 17:30:00,
2013-04-19 13:35:00,61.1,56.2,29.83,SSW,202,2.0,9.0,84,0.00,,BKN022,0.00,VWS V14.00,2013-04-19 17:35:00,
2013-04-19 13:40:00,60.9,56.0,29.83,ESE,113,4.0,9.0,84,0.00,,BKN022,0.00,VWS V14.00,2013-04-19 17:40:00,
2013-04-19 13:45:00,60.7,55.8,29.83,SE,144,3.0,10.0,84,0.00,,SCT031,0.00,VWS V14.00,2013-04-19 17:45:00,
2013-04-19 13:50:00,61.6,56.7,29.83,ESE,102,9.0,12.0,84,0.00,,SCT031,0.00,VWS V14.00,2013-04-19 17:50:00,
2013-04-19 13:55:00,63.1,57.5,29.82,East,96,7.0,12.0,82,0.00,,SCT031,0.00,VWS V14.00,2013-04-19 17:55:00,
2013-04-19 14:00:00,62.7,57.1,29.82,East,91,8.0,10.0,82,0.00,,BKN030,0.00,VWS V14.00,2013-04-19 18:00:00,
2013-04-19 14:05:00,63.4,57.5,29.82,NE,56,1.0,12.0,81,0.00,,BKN030,0.00,VWS V14.00,2013-04-19 18:05:00,
2013-04-19 14:10:00,63.4,57.1,29.82,WSW,247,10.0,12.0,80,0.00,,BKN030,0.00,VWS V14.00,2013-04-19 18:10:00,
2013-04-19 14:15:00,63.0,57.1,29.81,East,101,6.0,12.0,81,0.00,,BKN029,0.00,VWS V14.00,2013-04-19 18:15:00,
2013-04-19 14:20:00,63.2,57.3,29.81,South,175,6.0,12.0,81,0.00,,BKN029,0.00,VWS V14.00,2013-04-19 18:20:00,
2013-04-19 14:25:00,63.2,57.6,29.80,South,178,2.0,12.0,82,0.00,,BKN029,0.00,VWS V14.00,2013-04-19 18:25:00,
2013-04-19 14:30:00,63.8,57.9,29.80,South,190,4.0,10.0,81,0.00,,BKN029,0.00,VWS V14.00,2013-04-19 18:30:00,
2013-04-19 14:35:00,64.1,58.2,29.80,SSW,196,8.0,12.0,81,0.00,,BKN029,0.00,VWS V14.00,2013-04-19 18:35:00,
2013-04-19 14:40:00,64.1,58.2,29.79,South,178,14.0,14.0,81,0.00,,BKN029,0.00,VWS V14.00,2013-04-19 18:40:00,
2013-04-19 14:45:00,62.9,57.3,29.79,SSW,204,2.0,14.0,82,0.00,,BKN029,0.00,VWS V14.00,2013-04-19 18:45:00,
2013-04-19 14:50:00,62.4,56.8,29.79,SSE,155,6.0,14.0,82,0.00,,BKN029,0.00,VWS V14.00,2013-04-19 18:50:00,
2013-04-19 14:55:00,62.9,57.7,29.78,ESE,112,4.0,14.0,83,0.00,,BKN029,0.00,VWS V14.00,2013-04-19 18:55:00,
2013-04-19 15:00:00,64.4,58.5,29.78,ESE,118,3.0,12.0,81,0.00,,BKN200,0.00,VWS V14.00,2013-04-19 19:00:00,
2013-04-19 15:05:00,63.9,57.3,29.78,East,82,10.0,15.0,79,0.00,,BKN200,0.00,VWS V14.00,2013-04-19 19:05:00,
2013-04-19 15:10:00,63.8,57.5,29.77,NE,52,3.0,15.0,80,0.00,,BKN200,0.00,VWS V14.00,2013-04-19 19:10:00,
2013-04-19 15:15:00,63.3,57.4,29.77,SSE,153,9.0,15.0,81,0.00,,BKN200,0.00,VWS V14.00,2013-04-19 19:15:00,
2013-04-19 15:20:00,64.0,57.7,29.77,SSW,212,3.0,15.0,80,0.00,,BKN200,0.00,VWS V14.00,2013-04-19 19:20:00,
2013-04-19 15:25:00,65.1,58.4,29.76,South,178,5.0,15.0,79,0.00,,BKN200,0.00,VWS V14.00,2013-04-19 19:25:00,
2013-04-19 15:30:00,65.6,58.6,29.77,SW,219,7.0,14.0,78,0.00,,BKN200,0.00,VWS V14.00,2013-04-19 19:30:00,
2013-04-19 15:35:00,65.8,58.4,29.76,NNE,21,3.0,14.0,77,0.00,,BKN200,0.00,VWS V14.00,2013-04-19 19:35:00,
2013-04-19 15:40:00,65.9,58.5,29.75,ESE,119,1.0,15.0,77,0.00,,BKN200,0.00,VWS V14.00,2013-04-19 19:40:00,
2013-04-19 15:45:00,65.8,58.8,29.75,SSW,192,5.0,15.0,78,0.00,,BKN200,0.00,VWS V14.00,2013-04-19 19:45:00,
2013-04-19 15:50:00,66.3,59.2,29.75,North,350,5.0,15.0,78,0.00,,BKN200,0.00,VWS V14.00,2013-04-19 19:50:00,
2013-04-19 15:55:00,65.6,58.6,29.75,East,88,6.0,15.0,78,0.00,,BKN200,0.00,VWS V14.00,2013-04-19 19:55:00,
2013-04-19 16:00:00,65.0,58.3,29.75,SSE,148,0.0,11.0,79,0.00,,BKN200,0.00,VWS V14.00,2013-04-19 20:00:00,
2013-04-19 16:05:00,64.7,58.4,29.76,SW,232,7.0,11.0,80,0.00,,BKN200,0.00,VWS V14.00,2013-04-19 20:05:00,
2013-04-19 16:10:00,64.5,58.2,29.75,East,84,5.0,14.0,80,0.00,,BKN200,0.00,VWS V14.00,2013-04-19 20:10:00,
2013-04-19 16:15:00,63.9,58.0,29.75,WSW,255,4.0,14.0,81,0.00,,BKN200,0.00,VWS V14.00,2013-04-19 20:15:00,
2013-04-19 16:20:00,63.1,57.9,29.76,SSE,148,3.0,14.0,83,0.00,,BKN200,0.00,VWS V14.00,2013-04-19 20:20:00,
2013-04-19 16:25:00,62.7,57.8,29.75,South,170,6.0,17.0,84,0.00,,BKN200,0.00,VWS V14.00,2013-04-19 20:25:00,
2013-04-19 16:30:00,63.6,58.7,29.75,SW,217,6.0,14.0,84,0.00,,BKN200,0.00,VWS V14.00,2013-04-19 20:30:00,
2013-04-19 16:35:00,63.2,58.0,29.74,South,181,4.0,14.0,83,0.00,,BKN200,0.00,VWS V14.00,2013-04-19 20:35:00,
2013-04-19 16:40:00,63.2,58.6,29.74,SSW,200,11.0,14.0,85,0.00,,BKN200,0.00,VWS V14.00,2013-04-19 20:40:00,
2013-04-19 16:45:00,63.9,59.0,29.74,SW,223,4.0,14.0,84,0.00,,BKN200,0.00,VWS V14.00,2013-04-19 20:45:00,
2013-04-19 16:50:00,64.0,58.7,29.75,WSW,246,1.0,14.0,83,0.00,,BKN200,0.00,VWS V14.00,2013-04-19 20:50:00,
2013-04-19 16:55:00,63.7,58.5,29.75,SSW,212,5.0,14.0,83,0.00,,BKN200,0.00,VWS V14.00,2013-04-19 20:55:00,
2013-04-19 17:00:00,63.1,57.9,29.74,SE,140,7.0,13.0,83,0.00,,BKN200,0.00,VWS V14.00,2013-04-19 21:00:00,
2013-04-19 17:05:00,62.8,57.9,29.74,SSW,196,4.0,13.0,84,0.00,,BKN200,0.00,VWS V14.00,2013-04-19 21:05:00,
2013-04-19 17:10:00,62.7,57.8,29.74,South,173,3.0,14.0,84,0.00,,BKN200,0.00,VWS V14.00,2013-04-19 21:10:00,
2013-04-19 17:15:00,62.0,57.5,29.74,SE,128,5.0,14.0,85,0.00,,BKN200,0.00,VWS V14.00,2013-04-19 21:15:00,
2013-04-19 17:20:00,62.1,57.5,29.73,ENE,57,5.0,14.0,85,0.00,,BKN200,0.00,VWS V14.00,2013-04-19 21:20:00,
2013-04-19 17:25:00,61.7,57.5,29.73,ESE,122,4.0,14.0,86,0.00,,BKN200,0.00,VWS V14.00,2013-04-19 21:25:00,
2013-04-19 17:30:00,61.1,57.2,29.73,SW,235,2.0,12.0,87,0.00,,BKN200,0.00,VWS V14.00,2013-04-19 21:30:00,
2013-04-19 17:35:00,60.8,56.9,29.73,ESE,117,7.0,12.0,87,0.00,,BKN200,0.00,VWS V14.00,2013-04-19 21:35:00,
2013-04-19 17:40:00,60.6,57.0,29.73,South,176,2.0,16.0,88,0.00,,BKN200,0.00,VWS V14.00,2013-04-19 21:40:00,
2013-04-19 17:45:00,60.7,57.1,29.73,SW,219,5.0,16.0,88,0.00,,BKN200,0.00,VWS V14.00,2013-04-19 21:45:00,
2013-04-19 17:50:00,60.6,56.7,29.72,SE,146,8.0,16.0,87,0.00,,BKN200,0.00,VWS V14.00,2013-04-19 21:50:00,
2013-04-19 17:55:00,60.6,57.0,29.72,East,86,6.0,16.0,88,0.00,,BKN200,0.00,VWS V14.00,2013-04-19 21:55:00,
2013-04-19 18:00:00,60.5,56.9,29.72,SSE,163,3.0,8.0,88,0.00,,BKN200,0.00,VWS V14.00,2013-04-19 22:00:00,
2013-04-19 18:05:00,60.2,56.6,29.72,ESE,105,2.0,15.0,88,0.00,,BKN200,0.00,VWS V14.00,2013-04-19 22:05:00,
2013-04-19 18:10:00,60.0,56.4,29.72,SW,236,3.0,15.0,88,0.00,,BKN200,0.00,VWS V14.00,2013-04-19 22:10:00,
2013-04-19 18:15:00,59.7,56.5,29.72,WSW,239,6.0,15.0,89,0.00,,BKN200,0.00,VWS V14.00,2013-04-19 22:15:00,
2013-04-19 18:20:00,59.4,56.2,29.71,ENE,76,4.0,15.0,89,0.00,,BKN200,0.00,VWS V14.00,2013-04-19 22:20:00,
2013-04-19 18:25:00,59.3,56.4,29.72,ESE,104,12.0,15.0,90,0.00,,BKN200,0.00,VWS V14.00,2013-04-19 22:25:00,
2013-04-19 18:30:00,59.3,56.7,29.72,WNW,286,7.0,12.0,91,0.00,,BKN200,0.00,VWS V14.00,2013-04-19 22:30:00,
2013-04-19 18:35:00,59.3,56.7,29.72,WSW,239,4.0,18.0,91,0.00,,BKN200,0.00,VWS V14.00,2013-04-19 22:35:00,
2013-04-19 18:40:00,59.2,56.6,29.71,South,177,2.0,18.0,91,0.00,,BKN200,0.00,VWS V14.00,2013-04-19 22:40:00,
2013-04-19 18:45:00,59.0,56.4,29.71,NW,324,3.0,18.0,91,0.00,,BKN200,0.00,VWS V14.00,2013-04-19 22:45:00,
2013-04-19 18:50:00,58.7,56.1,29.72,WSW,245,0.0,18.0,91,0.00,,BKN200,0.00,VWS V14.00,2013-04-19 22:50:00,
2013-04-19 18:55:00,58.5,55.9,29.71,SSW,211,7.0,18.0,91,0.00,,BKN200,0.00,VWS V14.00,2013-04-19 22:55:00,
2013-04-19 19:00:00,58.3,56.0,29.71,East,93,1.0,13.0,92,0.00,,BKN200,0.00,VWS V14.00,2013-04-19 23:00:00,
2013-04-19 19:05:00,58.1,55.8,29.70,NE,51,1.0,13.0,92,0.00,,OVC200,0.00,VWS V14.00,2013-04-19 23:05:00,
2013-04-19 19:10:00,58.1,55.8,29.70,SE,146,2.0,13.0,92,0.00,,OVC200,0.00,VWS V14.00,2013-04-19 23:10:00,
2013-04-19 19:15:00,58.0,55.7,29.71,ENE,61,2.0,13.0,92,0.00,,OVC200,0.00,VWS V14.00,2013-04-19 23:15:00,
2013-04-19 19:20:00,57.8,55.8,29.70,SW,219,8.0,13.0,93,0.00,,OVC200,0.00,VWS V14.00,2013-04-19 23:20:00,
2013-04-19 19:24:00,57.6,55.6,29.70,SW,219,3.0,13.0,93,0.00,,OVC200,0.00,VWS V14.00,2013-04-19 23:24:00,
2013-04-19 19:29:00,57.5,55.5,29.70,WSW,240,2.0,10.0,93,0.00,,OVC200,0.00,VWS V14.00,2013-04-19 23:29:00,
2013-04-19 19:34:00,57.4,55.7,29.70,WSW,243,9.0,15.0,94,0.00,,OVC200,0.00,VWS V14.00,2013-04-19 23:34:00,
2013-04-19 19:39:00,57.3,55.6,29.69,ESE,111,5.0,15.0,94,0.00,,OVC200,0.00,VWS V14.00,2013-04-19 23:39:00,
2013-04-19 19:45:00,57.1,55.4,29.69,East,80,2.0,15.0,94,0.00,,OVC200,0.00,VWS V14.00,2013-04-19 23:45:00,
2013-04-19 19:50:00,56.6,54.9,29.68,East,92,1.0,15.0,94,0.00,,OVC200,0.00,VWS V14.00,2013-04-19 23:50:00,
2013-04-19 19:55:00,56.3,54.6,29.68,SW,232,6.0,15.0,94,0.00,,OVC200,0.00,VWS V14.00,2013-04-19 23:55:00,
2013-04-19 20:00:00,56.5,55.1,29.68,ENE,63,4.0,11.0,95,0.00,,OVC200,0.00,VWS V14.00,2013-04-20 00:00:00,
2013-04-19 20:05:00,56.8,55.4,29.68,SSE,153,2.0,11.0,95,0.00,,OVC200,0.00,VWS V14.00,2013-04-20 00:05:00,
2013-04-19 20:09:00,56.9,55.5,29.68,South,169,3.0,17.0,95,0.00,,OVC200,0.00,VWS V14.00,2013-04-20 00:09:00,
2013-04-19 20:14:00,56.7,55.3,29.68,ESE,117,10.0,17.0,95,0.00,,OVC200,0.00,VWS V14.00,2013-04-20 00:14:00,
2013-04-19 20:19:00,56.7,55.3,29.68,WSW,241,6.0,18.0,95,0.00,,OVC110,0.00,VWS V14.00,2013-04-20 00:19:00,
2013-04-19 20:24:00,56.9,55.5,29.68,WSW,237,6.0,18.0,95,0.00,,OVC110,0.00,VWS V14.00,2013-04-20 00:24:00,
2013-04-19 20:29:00,56.9,55.5,29.68,SSW,210,3.0,9.0,95,0.00,,OVC110,0.00,VWS V14.00,2013-04-20 00:29:00,
2013-04-19 20:34:00,56.9,55.5,29.68,WSW,246,0.0,11.0,95,0.00,,OVC110,0.00,VWS V14.00,2013-04-20 00:34:00,
2013-04-19 20:39:00,57.0,55.9,29.68,NE,55,6.0,19.0,96,0.00,,OVC110,0.00,VWS V14.00,2013-04-20 00:39:00,
2013-04-19 20:44:00,57.1,56.0,29.69,SSE,160,8.0,19.0,96,0.00,,OVC110,0.00,VWS V14.00,2013-04-20 00:44:00,
2013-04-19 20:49:00,57.0,55.9,29.68,ESE,107,4.0,19.0,96,0.00,,OVC110,0.00,VWS V14.00,2013-04-20 00:49:00,
2013-04-19 20:54:00,56.7,55.6,29.68,ESE,107,1.0,19.0,96,0.00,,OVC110,0.00,VWS V14.00,2013-04-20 00:54:00,
2013-04-19 20:59:00,56.4,55.3,29.69,South,173,0.0,10.0,96,0.00,,OVC110,0.00,VWS V14.00,2013-04-20 00:59:00,
2013-04-19 21:04:00,56.5,55.4,29.68,SW,234,4.0,15.0,96,0.00,,OVC024,0.00,VWS V14.00,2013-04-20 01:04:00,
2013-04-19 21:09:00,56.7,55.6,29.68,WNW,295,1.0,15.0,96,0.00,,OVC024,0.00,VWS V14.00,2013-04-20 01:09:00,
2013-04-19 21:14:00,56.7,55.6,29.68,NW,320,2.0,15.0,96,0.00,,OVC024,0.00,VWS V14.00,2013-04-20 01:14:00,
2013-04-19 21:19:00,56.9,56.1,29.68,WNW,284,4.0,15.0,97,0.00,,OVC024,0.00,VWS V14.00,2013-04-20 01:19:00,
2013-04-19 21:24:00,57.6,56.8,29.68,ENE,69,10.0,16.0,97,0.00,,OVC024,0.00,VWS V14.00,2013-04-20 01:24:00,
2013-04-19 21:29:00,58.1,57.3,29.68,SSE,164,3.0,20.0,97,0.00,,OVC024,0.00,VWS V14.00,2013-04-20 01:29:00,
2013-04-19 21:34:00,58.2,57.4,29.67,SSE,159,6.0,20.0,97,0.00,,OVC004,0.00,VWS V14.00,2013-04-20 01:34:00,
2013-04-19 21:39:00,58.2,57.4,29.67,ESE,112,4.0,22.0,97,0.00,,OVC004,0.00,VWS V14.00,2013-04-20 01:39:00,
2013-04-19 21:44:00,58.0,56.9,29.67,NNW,328,3.0,22.0,96,0.00,,OVC004,0.00,VWS V14.00,2013-04-20 01:44:00,
2013-04-19 21:49:00,58.1,57.0,29.66,WNW,300,7.0,22.0,96,0.00,,OVC004,0.00,VWS V14.00,2013-04-20 01:49:00,
2013-04-19 21:54:00,58.4,57.3,29.66,South,189,11.0,22.0,96,0.00,,OVC004,0.00,VWS V14.00,2013-04-20 01:54:00,
2013-04-19 21:59:00,58.4,57.3,29.66,SSE,158,2.0,14.0,96,0.00,,OVC004,0.00,VWS V14.00,2013-04-20 01:59:00,
2013-04-19 22:04:00,58.2,57.1,29.66,SSW,199,4.0,17.0,96,0.00,,-RA,0.00,VWS V14.00,2013-04-20 02:04:00,
2013-04-19 22:09:00,58.1,57.0,29.65,NW,311,4.0,19.0,96,0.00,,-RA,0.00,VWS V14.00,2013-04-20 02:09:00,
2013-04-19 22:14:00,58.2,57.1,29.65,SSW,209,4.0,19.0,96,0.00,,-RA,0.00,VWS V14.00,2013-04-20 02:14:00,
2013-04-19 22:19:00,58.6,57.5,29.65,SW,219,8.0,19.0,96,0.00,,-RA,0.00,VWS V14.00,2013-04-20 02:19:00,
2013-04-19 22:24:00,58.8,57.7,29.64,SE,140,3.0,19.0,96,0.00,,-RA,0.00,VWS V14.00,2013-04-20 02:24:00,
2013-04-19 22:29:00,58.6,57.2,29.64,ESE,115,5.0,11.0,95,0.00,,-RA,0.00,VWS V14.00,2013-04-20 02:29:00,
2013-04-19 22:34:00,58.3,56.9,29.65,SE,142,2.0,13.0,95,0.00,,-RA,0.00,VWS V14.00,2013-04-20 02:34:00,
2013-04-19 22:39:00,57.7,56.3,29.65,ESE,119,10.0,13.0,95,0.00,,-RA,0.00,VWS V14.00,2013-04-20 02:39:00,
2013-04-19 22:44:00,57.3,55.9,29.64,WSW,257,5.0,15.0,95,0.00,,-RA,0.00,VWS V14.00,2013-04-20 02:44:00,
2013-04-19 22:49:00,56.8,55.4,29.64,ESE,118,1.0,15.0,95,0.00,,-RA,0.00,VWS V14.00,2013-04-20 02:49:00,
2013-04-19 22:54:00,56.8,55.7,29.64,SW,234,10.0,15.0,96,0.00,,-RA,0.00,VWS V14.00,2013-04-20 02:54:00,
2013-04-19 22:59:00,57.4,56.3,29.64,South,169,4.0,8.0,96,0.00,,-RA,0.00,VWS V14.00,2013-04-20 02:59:00,
2013-04-19 23:04:00,57.5,56.4,29.63,SW,228,6.0,10.0,96,0.00,,-RA,0.00,VWS V14.00,2013-04-20 03:04:00,
2013-04-19 23:09:00,58.0,57.2,29.63,SSW,196,12.0,18.0,97,0.00,,-RA,0.00,VWS V14.00,2013-04-20 03:09:00,
2013-04-19 23:14:00,58.1,57.3,29.63,SW,231,11.0,18.0,97,0.00,,-RA,0.00,VWS V14.00,2013-04-20 03:14:00,
2013-04-19 23:19:00,57.5,56.4,29.62,West,265,10.0,22.0,96,0.00,,-RA,0.00,VWS V14.00,2013-04-20 03:19:00,
2013-04-19 23:24:00,57.8,57.0,29.62,SW,217,2.0,22.0,97,0.00,,-RA,0.00,VWS V14.00,2013-04-20 03:24:00,
2013-04-19 23:29:00,57.3,56.2,29.62,South,173,4.0,12.0,96,0.00,,-RA,0.00,VWS V14.00,2013-04-20 03:29:00,
2013-04-19 23:34:00,57.3,56.2,29.61,South,178,2.0,19.0,96,0.00,,-RA,0.00,VWS V14.00,2013-04-20 03:34:00,
2013-04-19 23:39:00,57.2,56.4,29.61,SSE,165,4.0,19.0,97,0.00,,-RA,0.00,VWS V14.00,2013-04-20 03:39:00,
2013-04-19 23:44:00,58.1,57.3,29.61,South,182,6.0,19.0,97,0.00,,-RA,0.00,VWS V14.00,2013-04-20 03:44:00,
2013-04-19 23:49:00,58.4,57.6,29.61,WSW,252,7.0,19.0,97,0.00,,-RA,0.00,VWS V14.00,2013-04-20 03:49:00,
2013-04-19 23:54:00,58.6,57.8,29.61,WNW,289,6.0,19.0,97,0.00,,-RA,0.00,VWS V14.00,2013-04-20 03:54:00,
2013-04-19 23:59:00,58.9,58.0,29.61,SE,131,3.0,15.0,97,0.00,,-RA,0.00,VWS V14.00,2013-04-20 03:59:00,